createdAt,value
2022-07-30T00:01:14.865Z,1001.8
2022-07-30T00:02:32.003Z,1001.8
2022-07-30T00:03:49.133Z,1001.8
2022-07-30T00:05:19.632Z,1001.8
2022-07-30T00:08:20.655Z,1001.9
2022-07-30T00:09:51.169Z,1001.9
2022-07-30T00:11:21.692Z,1001.9
2022-07-30T00:12:52.196Z,1001.9
2022-07-30T00:14:22.713Z,1001.8
2022-07-30T00:15:53.226Z,1001.7
2022-07-30T00:17:23.730Z,1001.7
2022-07-30T00:18:40.869Z,1001.7
2022-07-30T00:19:57.716Z,1001.6
2022-07-30T00:21:36.341Z,1001.7
2022-07-30T00:23:06.852Z,1001.7
2022-07-30T00:24:37.355Z,1001.7
2022-07-30T00:26:07.867Z,1001.7
2022-07-30T00:27:38.390Z,1001.6
2022-07-30T00:29:08.895Z,1001.6
2022-07-30T00:30:39.413Z,1001.6
2022-07-30T00:32:09.914Z,1001.6
2022-07-30T00:34:57.557Z,1001.6
2022-07-30T00:36:14.692Z,1001.6
2022-07-30T00:37:45.206Z,1001.7
2022-07-30T00:39:15.716Z,1001.7
2022-07-30T00:40:46.235Z,1001.7
2022-07-30T00:42:16.748Z,1001.7
2022-07-30T00:43:47.254Z,1001.7
2022-07-30T00:45:17.767Z,1001.7
2022-07-30T00:46:48.272Z,1001.7
2022-07-30T00:48:18.794Z,1001.7
2022-07-30T00:49:49.296Z,1001.6
2022-07-30T00:51:06.420Z,1001.6
2022-07-30T00:52:23.284Z,1001.7
2022-07-30T00:54:01.897Z,1001.6
2022-07-30T00:57:02.922Z,1001.7
2022-07-30T00:58:33.444Z,1001.7
2022-07-30T01:00:03.940Z,1001.7
2022-07-30T01:01:34.460Z,1001.7
2022-07-30T01:03:04.963Z,1001.8
2022-07-30T01:04:35.476Z,1001.8
2022-07-30T01:06:06.001Z,1001.7
2022-07-30T01:07:23.121Z,1001.7
2022-07-30T01:08:40.254Z,1001.7
2022-07-30T01:10:10.766Z,1001.7
2022-07-30T01:11:41.264Z,1001.6
2022-07-30T01:13:11.776Z,1001.7
2022-07-30T01:14:42.294Z,1001.7
2022-07-30T01:16:12.818Z,1001.7
2022-07-30T01:17:43.322Z,1001.7
2022-07-30T01:19:13.823Z,1001.7
2022-07-30T01:20:44.347Z,1001.7
2022-07-30T01:22:14.865Z,1001.7
2022-07-30T01:23:31.982Z,1001.7
2022-07-30T01:24:49.119Z,1001.6
2022-07-30T01:26:19.614Z,1001.7
2022-07-30T01:27:50.129Z,1001.7
2022-07-30T01:29:20.649Z,1001.7
2022-07-30T01:30:51.168Z,1001.7
2022-07-30T01:35:22.692Z,1001.7
2022-07-30T01:36:53.202Z,1001.7
2022-07-30T01:38:23.720Z,1001.7
2022-07-30T01:39:40.838Z,1001.7
2022-07-30T01:40:57.538Z,1001.7
2022-07-30T01:43:58.572Z,1001.7
2022-07-30T01:45:29.081Z,1001.7
2022-07-30T01:46:59.662Z,1001.6
2022-07-30T01:50:08.791Z,1001.6
2022-07-30T01:51:39.313Z,1001.6
2022-07-30T01:53:09.813Z,1001.7
2022-07-30T01:54:40.324Z,1001.7
2022-07-30T01:55:57.456Z,1001.6
2022-07-30T01:57:14.588Z,1001.6
2022-07-30T02:00:15.621Z,1001.7
2022-07-30T02:01:46.124Z,1001.7
2022-07-30T02:03:16.640Z,1001.7
2022-07-30T02:04:47.145Z,1001.7
2022-07-30T02:07:48.171Z,1001.7
2022-07-30T02:09:18.674Z,1001.7
2022-07-30T02:10:49.188Z,1001.7
2022-07-30T02:12:06.330Z,1001.6
2022-07-30T02:13:23.189Z,1001.5
2022-07-30T02:15:01.792Z,1001.5
2022-07-30T02:16:32.305Z,1001.5
2022-07-30T02:18:02.814Z,1001.5
2022-07-30T02:19:33.337Z,1001.5
2022-07-30T02:21:03.853Z,1001.6
2022-07-30T02:22:34.356Z,1001.6
2022-07-30T02:24:04.880Z,1001.6
2022-07-30T02:25:35.377Z,1001.6
2022-07-30T02:27:05.903Z,1001.5
2022-07-30T02:28:23.000Z,1001.5
2022-07-30T02:29:40.139Z,1001.5
2022-07-30T02:31:10.660Z,1001.5
2022-07-30T02:32:41.174Z,1001.5
2022-07-30T02:34:11.676Z,1001.5
2022-07-30T02:35:42.196Z,1001.5
2022-07-30T02:37:12.699Z,1001.5
2022-07-30T02:38:43.224Z,1001.6
2022-07-30T02:40:13.735Z,1001.6
2022-07-30T02:41:44.252Z,1001.7
2022-07-30T02:43:14.749Z,1001.6
2022-07-30T02:44:31.615Z,1001.6
2022-07-30T02:45:48.735Z,1001.7
2022-07-30T02:47:19.251Z,1001.6
2022-07-30T02:48:49.761Z,1001.6
2022-07-30T02:50:20.274Z,1001.6
2022-07-30T02:51:50.790Z,1001.6
2022-07-30T02:53:21.297Z,1001.7
2022-07-30T02:54:51.891Z,1001.7
2022-07-30T02:56:30.509Z,1001.6
2022-07-30T02:58:01.016Z,1001.7
2022-07-30T02:59:31.532Z,1001.7
2022-07-30T03:00:58.578Z,1001.7
2022-07-30T03:03:54.048Z,1001.8
2022-07-30T03:05:24.552Z,1001.8
2022-07-30T03:09:56.098Z,1001.8
2022-07-30T03:11:26.619Z,1001.9
2022-07-30T03:12:57.132Z,1001.9
2022-07-30T03:14:27.626Z,1001.9
2022-07-30T03:15:58.144Z,1001.9
2022-07-30T03:17:15.228Z,1001.9
2022-07-30T03:18:32.024Z,1001.9
2022-07-30T03:20:10.647Z,1001.9
2022-07-30T03:21:41.158Z,1001.9
2022-07-30T03:23:11.663Z,1001.9
2022-07-30T03:24:42.169Z,1001.9
2022-07-30T03:26:12.685Z,1001.9
2022-07-30T03:27:43.205Z,1001.9
2022-07-30T03:29:13.717Z,1001.9
2022-07-30T03:30:44.235Z,1001.8
2022-07-30T03:32:14.746Z,1001.8
2022-07-30T03:33:31.803Z,1001.8
2022-07-30T03:34:48.604Z,1001.8
2022-07-30T03:36:27.237Z,1001.8
2022-07-30T03:37:57.736Z,1001.7
2022-07-30T03:39:28.248Z,1001.7
2022-07-30T03:40:58.773Z,1001.7
2022-07-30T03:42:29.270Z,1001.6
2022-07-30T03:43:59.791Z,1001.6
2022-07-30T03:45:30.300Z,1001.5
2022-07-30T03:47:00.821Z,1001.4
2022-07-30T03:48:31.328Z,1001.4
2022-07-30T03:49:48.391Z,1001.3
2022-07-30T03:52:43.831Z,1001.3
2022-07-30T03:54:14.329Z,1001.2
2022-07-30T03:55:44.837Z,1001.2
2022-07-30T03:58:45.861Z,1001.3
2022-07-30T04:01:46.900Z,1001.3
2022-07-30T04:03:17.408Z,1001.2
2022-07-30T04:04:47.920Z,1001.1
2022-07-30T04:06:05.001Z,1001.1
2022-07-30T04:07:21.788Z,1001
2022-07-30T04:09:00.424Z,1001
2022-07-30T04:10:30.922Z,1000.9
2022-07-30T04:12:01.433Z,1000.9
2022-07-30T04:13:31.953Z,1000.9
2022-07-30T04:16:32.974Z,1000.9
2022-07-30T04:18:03.489Z,1001
2022-07-30T04:19:33.989Z,1001
2022-07-30T04:21:04.500Z,1001.1
2022-07-30T04:22:21.591Z,1001.2
2022-07-30T04:23:38.222Z,1001.2
2022-07-30T04:25:08.733Z,1001.2
2022-07-30T04:26:39.237Z,1001.2
2022-07-30T04:28:09.766Z,1001.2
2022-07-30T04:29:40.278Z,1001.3
2022-07-30T04:31:10.777Z,1001.3
2022-07-30T04:32:41.296Z,1001.3
2022-07-30T04:34:11.803Z,1001.4
2022-07-30T04:35:42.312Z,1001.3
2022-07-30T04:37:12.834Z,1001.3
2022-07-30T04:38:29.905Z,1001.3
2022-07-30T04:39:46.716Z,1001.4
2022-07-30T04:41:25.331Z,1001.4
2022-07-30T04:45:56.854Z,1001.6
2022-07-30T04:47:27.369Z,1001.6
2022-07-30T04:48:57.889Z,1001.6
2022-07-30T04:50:28.391Z,1001.7
2022-07-30T04:51:58.919Z,1001.7
2022-07-30T04:53:29.431Z,1001.7
2022-07-30T04:54:46.495Z,1001.7
2022-07-30T04:56:03.561Z,1001.8
2022-07-30T04:57:34.088Z,1001.8
2022-07-30T04:59:04.602Z,1001.9
2022-07-30T05:00:35.179Z,1001.9
2022-07-30T05:02:13.801Z,1001.9
2022-07-30T05:03:44.311Z,1001.9
2022-07-30T05:05:14.839Z,1001.9
2022-07-30T05:06:45.334Z,1001.9
2022-07-30T05:08:15.855Z,1002
2022-07-30T05:09:46.366Z,1002
2022-07-30T05:11:03.448Z,1002
2022-07-30T05:12:20.503Z,1002.1
2022-07-30T05:13:51.023Z,1002.1
2022-07-30T05:15:21.535Z,1002.1
2022-07-30T05:16:52.042Z,1002.1
2022-07-30T05:18:22.552Z,1002.1
2022-07-30T05:19:53.078Z,1002.1
2022-07-30T05:21:23.586Z,1002.1
2022-07-30T05:22:54.102Z,1002.1
2022-07-30T05:24:24.615Z,1002.1
2022-07-30T05:25:55.124Z,1002.1
2022-07-30T05:27:12.202Z,1002.1
2022-07-30T05:28:28.990Z,1002.1
2022-07-30T05:31:38.136Z,1002.1
2022-07-30T05:33:08.633Z,1002.1
2022-07-30T05:34:39.157Z,1002.2
2022-07-30T05:36:09.660Z,1002.2
2022-07-30T05:37:40.174Z,1002.3
2022-07-30T05:39:10.681Z,1002.3
2022-07-30T05:40:41.210Z,1002.3
2022-07-30T05:43:28.786Z,1002.2
2022-07-30T05:44:45.857Z,1002.2
2022-07-30T05:46:16.369Z,1002.2
2022-07-30T05:49:17.394Z,1002.3
2022-07-30T05:50:47.982Z,1002.2
2022-07-30T05:52:26.599Z,1002.3
2022-07-30T05:53:57.118Z,1002.3
2022-07-30T05:55:27.628Z,1002.3
2022-07-30T05:56:58.152Z,1002.3
2022-07-30T05:58:28.658Z,1002.3
2022-07-30T05:59:45.721Z,1002.4
2022-07-30T06:01:02.361Z,1002.4
2022-07-30T06:02:32.878Z,1002.5
2022-07-30T06:04:03.396Z,1002.4
2022-07-30T06:05:33.904Z,1002.4
2022-07-30T06:07:04.413Z,1002.3
2022-07-30T06:08:34.924Z,1002.4
2022-07-30T06:10:05.509Z,1002.4
2022-07-30T06:11:44.147Z,1002.4
2022-07-30T06:13:14.654Z,1002.4
2022-07-30T06:14:45.170Z,1002.4
2022-07-30T06:16:02.245Z,1002.4
2022-07-30T06:17:18.871Z,1002.4
2022-07-30T06:18:49.386Z,1002.4
2022-07-30T06:23:20.932Z,1002.4
2022-07-30T06:24:51.427Z,1002.4
2022-07-30T06:26:21.956Z,1002.4
2022-07-30T06:27:52.455Z,1002.4
2022-07-30T06:29:22.961Z,1002.4
2022-07-30T06:30:53.487Z,1002.4
2022-07-30T06:32:10.551Z,1002.4
2022-07-30T06:33:27.347Z,1002.4
2022-07-30T06:35:05.985Z,1002.4
2022-07-30T06:36:36.480Z,1002.5
2022-07-30T06:38:06.994Z,1002.5
2022-07-30T06:41:08.018Z,1002.4
2022-07-30T06:42:38.546Z,1002.5
2022-07-30T06:44:09.045Z,1002.5
2022-07-30T06:45:39.570Z,1002.4
2022-07-30T06:47:10.072Z,1002.5
2022-07-30T06:48:27.148Z,1002.5
2022-07-30T06:49:43.784Z,1002.4
2022-07-30T06:51:14.290Z,1002.5
2022-07-30T06:52:44.800Z,1002.5
2022-07-30T06:54:15.327Z,1002.6
2022-07-30T06:55:45.835Z,1002.6
2022-07-30T06:57:16.346Z,1002.6
2022-07-30T07:00:17.371Z,1002.5
2022-07-30T07:01:47.878Z,1002.5
2022-07-30T07:03:18.382Z,1002.6
2022-07-30T07:04:35.459Z,1002.6
2022-07-30T07:05:52.530Z,1002.5
2022-07-30T07:07:23.048Z,1002.6
2022-07-30T07:08:53.557Z,1002.6
2022-07-30T07:10:24.077Z,1002.6
2022-07-30T07:11:54.576Z,1002.6
2022-07-30T07:13:25.105Z,1002.7
2022-07-30T07:14:55.619Z,1002.6
2022-07-30T07:16:26.124Z,1002.6
2022-07-30T07:19:27.140Z,1002.7
2022-07-30T07:20:44.214Z,1002.6
2022-07-30T07:22:00.846Z,1002.6
2022-07-30T07:23:31.369Z,1002.6
2022-07-30T07:26:32.401Z,1002.6
2022-07-30T07:28:02.899Z,1002.6
2022-07-30T07:29:33.420Z,1002.7
2022-07-30T07:31:03.921Z,1002.7
2022-07-30T07:32:34.431Z,1002.7
2022-07-30T07:35:35.457Z,1002.6
2022-07-30T07:36:52.543Z,1002.6
2022-07-30T07:38:09.608Z,1002.6
2022-07-30T07:41:10.631Z,1002.6
2022-07-30T07:42:41.150Z,1002.6
2022-07-30T07:44:11.652Z,1002.6
2022-07-30T07:45:42.174Z,1002.6
2022-07-30T07:47:12.681Z,1002.6
2022-07-30T07:48:43.188Z,1002.6
2022-07-30T07:50:13.709Z,1002.6
2022-07-30T07:51:44.209Z,1002.6
2022-07-30T07:53:01.283Z,1002.6
2022-07-30T07:54:18.372Z,1002.7
2022-07-30T07:55:48.864Z,1002.7
2022-07-30T07:57:19.384Z,1002.7
2022-07-30T07:58:49.892Z,1002.7
2022-07-30T08:00:20.403Z,1002.7
2022-07-30T08:01:50.921Z,1002.7
2022-07-30T08:03:21.436Z,1002.7
2022-07-30T08:04:51.944Z,1002.7
2022-07-30T08:06:22.454Z,1002.7
2022-07-30T08:07:52.962Z,1002.6
2022-07-30T08:09:10.044Z,1002.7
2022-07-30T08:10:26.836Z,1002.7
2022-07-30T08:12:05.460Z,1002.7
2022-07-30T08:15:06.481Z,1002.7
2022-07-30T08:16:37.009Z,1002.7
2022-07-30T08:18:07.512Z,1002.8
2022-07-30T08:19:38.032Z,1002.8
2022-07-30T08:22:39.044Z,1002.8
2022-07-30T08:24:09.567Z,1002.9
2022-07-30T08:25:26.641Z,1002.9
2022-07-30T08:28:14.211Z,1002.8
2022-07-30T08:31:15.247Z,1002.8
2022-07-30T08:34:16.257Z,1002.9
2022-07-30T08:35:46.789Z,1003
2022-07-30T08:37:17.286Z,1003
2022-07-30T08:38:47.803Z,1003
2022-07-30T08:40:18.392Z,1003
2022-07-30T08:41:35.469Z,1003
2022-07-30T08:42:52.537Z,1003.1
2022-07-30T08:44:23.047Z,1003.1
2022-07-30T08:45:53.571Z,1003.1
2022-07-30T08:47:24.081Z,1003.1
2022-07-30T08:48:54.592Z,1003.2
2022-07-30T08:50:25.103Z,1003.2
2022-07-30T08:53:26.134Z,1003.3
2022-07-30T08:54:56.632Z,1003.2
2022-07-30T08:56:27.152Z,1003.2
2022-07-30T08:57:44.214Z,1003.2
2022-07-30T08:59:00.857Z,1003.2
2022-07-30T09:00:31.365Z,1003.3
2022-07-30T09:02:01.875Z,1003.3
2022-07-30T09:03:32.401Z,1003.3
2022-07-30T09:05:02.907Z,1003.3
2022-07-30T09:06:33.421Z,1003.4
2022-07-30T09:08:03.922Z,1003.3
2022-07-30T09:09:34.440Z,1003.3
2022-07-30T09:11:04.958Z,1003.3
2022-07-30T09:12:35.466Z,1003.4
2022-07-30T09:13:52.261Z,1003.3
2022-07-30T09:15:08.903Z,1003.4
2022-07-30T09:16:39.410Z,1003.4
2022-07-30T09:18:09.925Z,1003.4
2022-07-30T09:19:40.435Z,1003.4
2022-07-30T09:21:10.953Z,1003.3
2022-07-30T09:22:41.476Z,1003.4
2022-07-30T09:24:11.981Z,1003.4
2022-07-30T09:25:42.488Z,1003.3
2022-07-30T09:27:13.007Z,1003.4
2022-07-30T09:28:43.525Z,1003.3
2022-07-30T09:30:14.023Z,1003.4
2022-07-30T09:31:31.112Z,1003.3
2022-07-30T09:32:47.912Z,1003.4
2022-07-30T09:34:26.535Z,1003.3
2022-07-30T09:35:57.031Z,1003.3
2022-07-30T09:37:27.545Z,1003.3
2022-07-30T09:38:58.069Z,1003.3
2022-07-30T09:40:28.564Z,1003.3
2022-07-30T09:41:59.083Z,1003.3
2022-07-30T09:43:29.598Z,1003.3
2022-07-30T09:45:00.105Z,1003.3
2022-07-30T09:46:30.617Z,1003.3
2022-07-30T09:47:47.688Z,1003.3
2022-07-30T09:49:04.774Z,1003.4
2022-07-30T09:52:05.802Z,1003.3
2022-07-30T09:53:36.311Z,1003.3
2022-07-30T09:55:06.817Z,1003.3
2022-07-30T09:56:37.319Z,1003.3
2022-07-30T09:58:07.841Z,1003.4
2022-07-30T10:01:08.869Z,1003.4
2022-07-30T10:02:39.463Z,1003.4
2022-07-30T10:03:56.102Z,1003.4
2022-07-30T10:05:13.163Z,1003.4
2022-07-30T10:08:14.184Z,1003.4
2022-07-30T10:09:44.713Z,1003.4
2022-07-30T10:11:15.225Z,1003.4
2022-07-30T10:12:45.739Z,1003.4
2022-07-30T10:14:16.235Z,1003.4
2022-07-30T10:15:46.759Z,1003.4
2022-07-30T10:17:17.272Z,1003.4
2022-07-30T10:18:47.770Z,1003.4
2022-07-30T10:20:04.852Z,1003.4
2022-07-30T10:21:21.929Z,1003.3
2022-07-30T10:22:52.438Z,1003.3
2022-07-30T10:24:22.941Z,1003.3
2022-07-30T10:25:53.458Z,1003.3
2022-07-30T10:27:23.979Z,1003.3
2022-07-30T10:28:54.491Z,1003.4
2022-07-30T10:30:25.003Z,1003.3
2022-07-30T10:31:55.499Z,1003.3
2022-07-30T10:33:26.024Z,1003.3
2022-07-30T10:34:56.525Z,1003.3
2022-07-30T10:36:13.341Z,1003.3
2022-07-30T10:37:30.410Z,1003.3
2022-07-30T10:39:00.921Z,1003.3
2022-07-30T10:40:31.424Z,1003.3
2022-07-30T10:42:01.944Z,1003.3
2022-07-30T10:45:02.979Z,1003.4
2022-07-30T10:46:33.489Z,1003.4
2022-07-30T10:48:03.995Z,1003.4
2022-07-30T10:49:34.515Z,1003.3
2022-07-30T10:51:05.022Z,1003.4
2022-07-30T10:52:35.521Z,1003.4
2022-07-30T10:53:52.604Z,1003.3
2022-07-30T10:55:09.233Z,1003.3
2022-07-30T10:56:39.748Z,1003.3
2022-07-30T10:58:10.256Z,1003.3
2022-07-30T11:01:11.298Z,1003.3
2022-07-30T11:02:41.811Z,1003.4
2022-07-30T11:04:12.310Z,1003.4
2022-07-30T11:05:42.829Z,1003.4
2022-07-30T11:07:13.431Z,1003.4
2022-07-30T11:10:09.109Z,1003.4
2022-07-30T11:12:56.258Z,1003.4
2022-07-30T11:14:26.772Z,1003.4
2022-07-30T11:15:57.285Z,1003.3
2022-07-30T11:17:27.806Z,1003.4
2022-07-30T11:20:28.824Z,1003.4
2022-07-30T11:21:59.341Z,1003.4
2022-07-30T11:23:29.852Z,1003.4
2022-07-30T11:25:00.367Z,1003.4
2022-07-30T11:26:17.435Z,1003.4
2022-07-30T11:27:34.511Z,1003.4
2022-07-30T11:29:05.010Z,1003.4
2022-07-30T11:30:35.529Z,1003.4
2022-07-30T11:33:36.546Z,1003.4
2022-07-30T11:35:07.154Z,1003.4
2022-07-30T11:36:45.763Z,1003.4
2022-07-30T11:38:16.282Z,1003.4
2022-07-30T11:39:46.804Z,1003.4
2022-07-30T11:42:34.374Z,1003.4
2022-07-30T11:43:51.455Z,1003.5
2022-07-30T11:45:21.966Z,1003.4
2022-07-30T11:46:52.474Z,1003.4
2022-07-30T11:48:22.978Z,1003.4
2022-07-30T11:49:53.503Z,1003.4
2022-07-30T11:52:54.513Z,1003.5
2022-07-30T11:54:25.034Z,1003.5
2022-07-30T11:57:26.063Z,1003.5
2022-07-30T11:58:43.129Z,1003.5
2022-07-30T12:00:00.212Z,1003.5
2022-07-30T12:01:30.707Z,1003.5
2022-07-30T12:03:01.233Z,1003.5
2022-07-30T12:04:31.736Z,1003.4
2022-07-30T12:06:02.261Z,1003.4
2022-07-30T12:07:32.772Z,1003.5
2022-07-30T12:12:04.307Z,1003.5
2022-07-30T12:13:34.815Z,1003.4
2022-07-30T12:14:51.894Z,1003.5
2022-07-30T12:16:08.950Z,1003.5
2022-07-30T12:17:39.473Z,1003.5
2022-07-30T12:19:09.990Z,1003.5
2022-07-30T12:20:40.500Z,1003.5
2022-07-30T12:22:11.005Z,1003.5
2022-07-30T12:23:41.522Z,1003.6
2022-07-30T12:26:42.550Z,1003.5
2022-07-30T12:28:13.055Z,1003.6
2022-07-30T12:31:00.632Z,1003.6
2022-07-30T12:32:17.713Z,1003.5
2022-07-30T12:36:49.253Z,1003.5
2022-07-30T12:38:19.753Z,1003.5
2022-07-30T12:41:20.787Z,1003.5
2022-07-30T12:42:51.301Z,1003.5
2022-07-30T12:45:52.311Z,1003.5
2022-07-30T12:47:09.385Z,1003.6
2022-07-30T12:49:56.980Z,1003.6
2022-07-30T12:51:27.483Z,1003.5
2022-07-30T12:52:57.994Z,1003.5
2022-07-30T12:55:59.031Z,1003.5
2022-07-30T13:00:30.552Z,1003.6
2022-07-30T13:02:01.074Z,1003.5
2022-07-30T13:03:18.150Z,1003.5
2022-07-30T13:06:05.739Z,1003.5
2022-07-30T13:09:06.749Z,1003.5
2022-07-30T13:15:08.812Z,1003.5
2022-07-30T13:19:26.899Z,1003.6
2022-07-30T13:20:43.982Z,1003.5
2022-07-30T13:25:15.506Z,1003.5
2022-07-30T13:28:24.717Z,1003.5
2022-07-30T13:29:55.223Z,1003.5
2022-07-30T13:34:26.773Z,1003.5
2022-07-30T13:35:43.847Z,1003.6
2022-07-30T13:40:09.689Z,1003.5
2022-07-30T13:44:41.231Z,1003.5
2022-07-30T13:46:11.737Z,1003.5
2022-07-30T13:49:12.759Z,1003.5
2022-07-30T13:52:00.349Z,1003.6
2022-07-30T13:54:47.937Z,1003.5
2022-07-30T13:59:19.468Z,1003.6
2022-07-30T14:00:49.981Z,1003.5
2022-07-30T14:08:09.107Z,1003.6
2022-07-30T14:09:26.182Z,1003.5
2022-07-30T14:13:57.716Z,1003.5
2022-07-30T14:18:29.246Z,1003.5
2022-07-30T14:23:00.780Z,1003.5
2022-07-30T14:24:17.862Z,1003.5
2022-07-30T14:28:35.953Z,1003.4
2022-07-30T14:34:06.169Z,1003.5
2022-07-30T14:39:23.905Z,1003.5
2022-07-30T14:43:42.917Z,1003.4
2022-07-30T14:46:43.938Z,1003.4
2022-07-30T14:49:44.951Z,1003.5
2022-07-30T14:52:45.982Z,1003.4
2022-07-30T14:55:47.010Z,1003.5
2022-07-30T15:01:49.042Z,1003.4
2022-07-30T15:04:50.064Z,1003.5
2022-07-30T15:10:52.113Z,1003.5
2022-07-30T15:13:53.138Z,1003.5
2022-07-30T15:19:55.175Z,1003.5
2022-07-30T15:22:56.204Z,1003.5
2022-07-30T15:28:58.248Z,1003.5
2022-07-30T15:31:59.269Z,1003.5
2022-07-30T15:34:16.748Z,1003.5
2022-07-30T15:41:36.922Z,1003.5
2022-07-30T15:47:38.968Z,1003.5
2022-07-30T15:50:40.003Z,1003.5
2022-07-30T15:59:43.058Z,1003.4
2022-07-30T16:02:44.089Z,1003.4
2022-07-30T16:04:26.979Z,1003.5
2022-07-30T16:05:45.135Z,1003.5
2022-07-30T16:08:46.156Z,1003.5
2022-07-30T16:14:48.199Z,1003.5
2022-07-30T16:17:49.204Z,1003.5
2022-07-30T16:23:51.248Z,1003.4
2022-07-30T16:26:52.279Z,1003.4
2022-07-30T16:32:54.318Z,1003.4
2022-07-30T16:34:37.234Z,1003.5
2022-07-30T16:35:55.357Z,1003.5
2022-07-30T16:38:56.364Z,1003.5
2022-07-30T16:41:57.398Z,1003.5
2022-07-30T16:51:00.452Z,1003.5
2022-07-30T16:54:01.475Z,1003.5
2022-07-30T17:00:03.515Z,1003.6
2022-07-30T17:03:04.532Z,1003.6
2022-07-30T17:04:47.464Z,1003.6
2022-07-30T17:09:06.572Z,1003.6
2022-07-30T17:15:08.632Z,1003.7
2022-07-30T17:18:09.649Z,1003.7
2022-07-30T17:27:12.722Z,1003.8
2022-07-30T17:34:57.687Z,1003.8
2022-07-30T17:36:15.771Z,1003.7
2022-07-30T17:45:18.846Z,1003.7
2022-07-30T17:48:19.881Z,1003.7
2022-07-30T17:54:21.914Z,1003.8
2022-07-30T17:57:22.927Z,1003.8
2022-07-30T18:03:24.985Z,1003.8
2022-07-30T18:05:07.941Z,1003.8
2022-07-30T18:06:26.008Z,1003.8
2022-07-30T18:12:28.043Z,1003.9
2022-07-30T18:15:29.075Z,1003.8
2022-07-30T18:18:30.091Z,1003.8
2022-07-30T18:21:31.126Z,1003.9
2022-07-30T18:24:32.144Z,1003.9
2022-07-30T18:30:34.182Z,1003.9
2022-07-30T18:33:35.211Z,1003.9
2022-07-30T18:35:18.176Z,1003.9
2022-07-30T18:39:37.253Z,1003.9
2022-07-30T18:42:38.265Z,1003.9
2022-07-30T18:48:40.309Z,1004
2022-07-30T18:57:43.384Z,1004
2022-07-30T19:00:44.408Z,1004
2022-07-30T19:05:28.426Z,1004.1
2022-07-30T19:06:46.454Z,1004.1
2022-07-30T19:09:47.466Z,1004.1
2022-07-30T19:15:49.513Z,1004.1
2022-07-30T19:18:50.543Z,1004.1
2022-07-30T19:24:52.577Z,1004.1
2022-07-30T19:27:53.611Z,1004.1
2022-07-30T19:33:55.659Z,1004.2
2022-07-30T19:35:38.659Z,1004.2
2022-07-30T19:36:56.706Z,1004.2
2022-07-30T19:42:58.748Z,1004.3
2022-07-30T19:45:59.763Z,1004.3
2022-07-30T19:52:01.814Z,1004.3
2022-07-30T19:55:02.820Z,1004.3
2022-07-30T20:01:04.882Z,1004.3
2022-07-30T20:04:05.902Z,1004.3
2022-07-30T20:05:48.913Z,1004.3
2022-07-30T20:10:07.945Z,1004.3
2022-07-30T20:13:08.981Z,1004.3
2022-07-30T20:19:11.025Z,1004.3
2022-07-30T20:22:12.046Z,1004.3
2022-07-30T20:28:14.078Z,1004.3
2022-07-30T20:31:15.104Z,1004.3
2022-07-30T20:35:59.146Z,1004.3
2022-07-30T20:37:17.179Z,1004.2
2022-07-30T20:40:18.208Z,1004.2
2022-07-30T20:46:20.250Z,1004.3
2022-07-30T20:55:23.311Z,1004.3
2022-07-30T20:58:24.341Z,1004.3
2022-07-30T21:06:09.381Z,1004.3
2022-07-30T21:07:27.422Z,1004.3
2022-07-30T21:19:31.500Z,1004.2
2022-07-30T21:22:32.534Z,1004.2
2022-07-30T21:31:35.595Z,1004.3
2022-07-30T21:36:19.640Z,1004.3
2022-07-30T21:40:38.689Z,1004.3
2022-07-30T21:43:39.708Z,1004.2
2022-07-30T21:49:41.762Z,1004.2
2022-07-30T21:52:42.779Z,1004.2
2022-07-30T21:58:44.822Z,1004.2
2022-07-30T22:01:45.841Z,1004.2
2022-07-30T22:06:29.888Z,1004.2
2022-07-30T22:07:47.901Z,1004.3
2022-07-30T22:10:48.925Z,1004.3
2022-07-30T22:16:50.963Z,1004.3
2022-07-30T22:22:53.020Z,1004.2
2022-07-30T22:25:54.029Z,1004.2
2022-07-30T22:34:57.106Z,1004.2
2022-07-30T22:36:40.115Z,1004.1
2022-07-30T22:53:03.265Z,1004.2
2022-07-30T23:02:06.341Z,1004.2
2022-07-30T23:06:50.365Z,1004.2
2022-07-30T23:08:08.381Z,1004.2
2022-07-30T23:11:09.417Z,1004.2
2022-07-30T23:20:12.475Z,1004.1
2022-07-30T23:29:15.557Z,1004.2
2022-07-30T23:37:00.607Z,1004.2
2022-07-30T23:38:18.643Z,1004.2
2022-07-30T23:41:19.664Z,1004.2
2022-07-30T23:47:21.718Z,1004.3
2022-07-30T23:50:22.728Z,1004.3
2022-07-30T23:59:25.795Z,1004.3
